sensor_id;sensor_type;location;lat;lon;timestamp;P1;durP1;ratioP1;P2;durP2;ratioP2
8419;SDS011;4247;48.550;8.822;2024-02-14T00:00:14;4.23;;;2.07;;
8419;SDS011;4247;48.550;8.822;2024-02-14T00:02:41;3.67;;;2.40;;
8419;SDS011;4247;48.550;8.822;2024-02-14T00:05:09;2.63;;;2.03;;
8419;SDS011;4247;48.550;8.822;2024-02-14T00:07:36;3.13;;;2.30;;
8419;SDS011;4247;48.550;8.822;2024-02-14T00:10:04;8.77;;;2.43;;
8419;SDS011;4247;48.550;8.822;2024-02-14T00:12:31;3.17;;;1.73;;
8419;SDS011;4247;48.550;8.822;2024-02-14T00:14:58;5.70;;;2.57;;
8419;SDS011;4247;48.550;8.822;2024-02-14T00:17:26;5.07;;;2.10;;
8419;SDS011;4247;48.550;8.822;2024-02-14T00:19:53;7.07;;;2.27;;
8419;SDS011;4247;48.550;8.822;2024-02-14T00:22:19;3.53;;;2.07;;
8419;SDS011;4247;48.550;8.822;2024-02-14T00:24:46;2.43;;;2.17;;
8419;SDS011;4247;48.550;8.822;2024-02-14T00:27:13;4.57;;;3.10;;
8419;SDS011;4247;48.550;8.822;2024-02-14T00:29:40;5.40;;;2.23;;
8419;SDS011;4247;48.550;8.822;2024-02-14T00:32:10;4.47;;;2.63;;
8419;SDS011;4247;48.550;8.822;2024-02-14T00:34:38;5.23;;;2.33;;
8419;SDS011;4247;48.550;8.822;2024-02-14T00:37:04;3.63;;;2.00;;
8419;SDS011;4247;48.550;8.822;2024-02-14T00:39:31;2.50;;;1.93;;
8419;SDS011;4247;48.550;8.822;2024-02-14T00:41:58;4.10;;;2.23;;
8419;SDS011;4247;48.550;8.822;2024-02-14T00:44:25;3.37;;;1.93;;
8419;SDS011;4247;48.550;8.822;2024-02-14T00:46:55;3.57;;;1.53;;
8419;SDS011;4247;48.550;8.822;2024-02-14T00:49:22;1.93;;;1.63;;
8419;SDS011;4247;48.550;8.822;2024-02-14T00:51:50;5.00;;;1.73;;
8419;SDS011;4247;48.550;8.822;2024-02-14T00:54:17;3.20;;;2.13;;
8419;SDS011;4247;48.550;8.822;2024-02-14T00:56:44;2.50;;;1.40;;
8419;SDS011;4247;48.550;8.822;2024-02-14T00:59:11;4.17;;;1.60;;
8419;SDS011;4247;48.550;8.822;2024-02-14T01:01:38;3.63;;;2.60;;
8419;SDS011;4247;48.550;8.822;2024-02-14T01:04:04;3.93;;;2.27;;
8419;SDS011;4247;48.550;8.822;2024-02-14T01:06:32;2.80;;;1.60;;
8419;SDS011;4247;48.550;8.822;2024-02-14T01:09:00;2.93;;;1.87;;
8419;SDS011;4247;48.550;8.822;2024-02-14T01:11:28;3.60;;;1.80;;
8419;SDS011;4247;48.550;8.822;2024-02-14T01:13:55;1.70;;;1.50;;
8419;SDS011;4247;48.550;8.822;2024-02-14T01:16:21;5.13;;;2.07;;
8419;SDS011;4247;48.550;8.822;2024-02-14T01:18:50;2.63;;;2.07;;
8419;SDS011;4247;48.550;8.822;2024-02-14T01:21:17;5.80;;;2.23;;
8419;SDS011;4247;48.550;8.822;2024-02-14T01:23:44;2.60;;;1.50;;
8419;SDS011;4247;48.550;8.822;2024-02-14T01:26:12;2.20;;;1.60;;
8419;SDS011;4247;48.550;8.822;2024-02-14T01:28:38;1.77;;;1.27;;
8419;SDS011;4247;48.550;8.822;2024-02-14T01:31:05;1.83;;;1.53;;
8419;SDS011;4247;48.550;8.822;2024-02-14T01:33:31;4.33;;;1.20;;
8419;SDS011;4247;48.550;8.822;2024-02-14T01:35:58;5.23;;;1.87;;
8419;SDS011;4247;48.550;8.822;2024-02-14T01:38:25;4.53;;;1.27;;
8419;SDS011;4247;48.550;8.822;2024-02-14T01:40:52;3.20;;;1.67;;
8419;SDS011;4247;48.550;8.822;2024-02-14T01:43:20;2.73;;;1.60;;
8419;SDS011;4247;48.550;8.822;2024-02-14T01:45:47;3.67;;;1.37;;
8419;SDS011;4247;48.550;8.822;2024-02-14T01:48:14;4.80;;;1.53;;
8419;SDS011;4247;48.550;8.822;2024-02-14T01:50:43;2.77;;;1.50;;
8419;SDS011;4247;48.550;8.822;2024-02-14T01:53:10;6.63;;;1.53;;
8419;SDS011;4247;48.550;8.822;2024-02-14T01:55:38;3.47;;;1.63;;
8419;SDS011;4247;48.550;8.822;2024-02-14T01:58:05;4.03;;;1.33;;
8419;SDS011;4247;48.550;8.822;2024-02-14T02:00:33;3.03;;;1.63;;
8419;SDS011;4247;48.550;8.822;2024-02-14T02:03:01;2.60;;;1.53;;
8419;SDS011;4247;48.550;8.822;2024-02-14T02:05:29;5.63;;;1.60;;
8419;SDS011;4247;48.550;8.822;2024-02-14T02:07:55;4.57;;;1.67;;
8419;SDS011;4247;48.550;8.822;2024-02-14T02:10:22;1.70;;;1.60;;
8419;SDS011;4247;48.550;8.822;2024-02-14T02:12:50;3.07;;;1.60;;
8419;SDS011;4247;48.550;8.822;2024-02-14T02:15:17;3.30;;;1.87;;
8419;SDS011;4247;48.550;8.822;2024-02-14T02:17:45;3.67;;;1.57;;
8419;SDS011;4247;48.550;8.822;2024-02-14T02:20:17;2.80;;;1.60;;
8419;SDS011;4247;48.550;8.822;2024-02-14T02:22:45;7.50;;;1.20;;
8419;SDS011;4247;48.550;8.822;2024-02-14T02:25:13;4.10;;;1.43;;
8419;SDS011;4247;48.550;8.822;2024-02-14T02:27:40;2.67;;;1.27;;
8419;SDS011;4247;48.550;8.822;2024-02-14T02:30:07;6.83;;;1.80;;
8419;SDS011;4247;48.550;8.822;2024-02-14T02:32:35;4.37;;;1.67;;
8419;SDS011;4247;48.550;8.822;2024-02-14T02:35:03;4.10;;;1.70;;
8419;SDS011;4247;48.550;8.822;2024-02-14T02:37:30;2.57;;;1.43;;
8419;SDS011;4247;48.550;8.822;2024-02-14T02:39:58;2.63;;;1.23;;
8419;SDS011;4247;48.550;8.822;2024-02-14T02:42:25;3.20;;;1.50;;
8419;SDS011;4247;48.550;8.822;2024-02-14T02:44:52;3.53;;;1.80;;
8419;SDS011;4247;48.550;8.822;2024-02-14T02:47:19;4.40;;;1.83;;
8419;SDS011;4247;48.550;8.822;2024-02-14T02:49:46;2.30;;;1.60;;
8419;SDS011;4247;48.550;8.822;2024-02-14T02:52:13;3.33;;;1.77;;
8419;SDS011;4247;48.550;8.822;2024-02-14T02:54:39;2.17;;;1.50;;
8419;SDS011;4247;48.550;8.822;2024-02-14T02:57:10;4.40;;;1.73;;
8419;SDS011;4247;48.550;8.822;2024-02-14T02:59:37;2.20;;;1.17;;
8419;SDS011;4247;48.550;8.822;2024-02-14T03:02:07;2.87;;;1.33;;
8419;SDS011;4247;48.550;8.822;2024-02-14T03:04:36;2.07;;;1.50;;
8419;SDS011;4247;48.550;8.822;2024-02-14T03:07:03;1.80;;;1.50;;
8419;SDS011;4247;48.550;8.822;2024-02-14T03:09:33;3.67;;;1.87;;
8419;SDS011;4247;48.550;8.822;2024-02-14T03:12:00;2.70;;;1.70;;
8419;SDS011;4247;48.550;8.822;2024-02-14T03:14:29;1.90;;;1.70;;
8419;SDS011;4247;48.550;8.822;2024-02-14T03:16:57;1.43;;;1.33;;
8419;SDS011;4247;48.550;8.822;2024-02-14T03:19:24;1.23;;;1.20;;
8419;SDS011;4247;48.550;8.822;2024-02-14T03:21:52;2.60;;;1.83;;
8419;SDS011;4247;48.550;8.822;2024-02-14T03:24:18;3.97;;;1.73;;
8419;SDS011;4247;48.550;8.822;2024-02-14T03:26:45;3.67;;;2.07;;
8419;SDS011;4247;48.550;8.822;2024-02-14T03:29:12;2.93;;;1.17;;
8419;SDS011;4247;48.550;8.822;2024-02-14T03:31:43;5.87;;;1.40;;
8419;SDS011;4247;48.550;8.822;2024-02-14T03:34:09;2.57;;;1.00;;
8419;SDS011;4247;48.550;8.822;2024-02-14T03:36:36;6.03;;;1.83;;
8419;SDS011;4247;48.550;8.822;2024-02-14T03:39:03;2.23;;;1.13;;
8419;SDS011;4247;48.550;8.822;2024-02-14T03:41:31;2.07;;;1.20;;
8419;SDS011;4247;48.550;8.822;2024-02-14T03:43:58;2.83;;;1.10;;
8419;SDS011;4247;48.550;8.822;2024-02-14T03:46:26;3.90;;;1.10;;
8419;SDS011;4247;48.550;8.822;2024-02-14T03:48:55;4.07;;;1.27;;
8419;SDS011;4247;48.550;8.822;2024-02-14T03:51:22;1.90;;;1.03;;
8419;SDS011;4247;48.550;8.822;2024-02-14T03:53:49;1.93;;;1.53;;
8419;SDS011;4247;48.550;8.822;2024-02-14T03:56:16;1.53;;;1.10;;
8419;SDS011;4247;48.550;8.822;2024-02-14T03:58:43;0.97;;;0.80;;
8419;SDS011;4247;48.550;8.822;2024-02-14T04:01:11;0.80;;;0.80;;
8419;SDS011;4247;48.550;8.822;2024-02-14T04:03:38;0.57;;;0.53;;
8419;SDS011;4247;48.550;8.822;2024-02-14T04:06:06;1.80;;;1.03;;
8419;SDS011;4247;48.550;8.822;2024-02-14T04:08:33;1.17;;;0.93;;
8419;SDS011;4247;48.550;8.822;2024-02-14T04:11:00;2.63;;;0.90;;
8419;SDS011;4247;48.550;8.822;2024-02-14T04:13:26;0.93;;;0.90;;
8419;SDS011;4247;48.550;8.822;2024-02-14T04:15:53;2.20;;;0.97;;
8419;SDS011;4247;48.550;8.822;2024-02-14T04:18:20;1.17;;;0.73;;
8419;SDS011;4247;48.550;8.822;2024-02-14T04:20:46;3.77;;;1.00;;
8419;SDS011;4247;48.550;8.822;2024-02-14T04:23:15;2.50;;;1.00;;
8419;SDS011;4247;48.550;8.822;2024-02-14T04:25:41;1.23;;;0.80;;
8419;SDS011;4247;48.550;8.822;2024-02-14T04:28:08;7.77;;;0.93;;
8419;SDS011;4247;48.550;8.822;2024-02-14T04:30:36;3.10;;;1.07;;
8419;SDS011;4247;48.550;8.822;2024-02-14T04:33:03;1.70;;;0.80;;
8419;SDS011;4247;48.550;8.822;2024-02-14T04:35:31;1.43;;;0.60;;
8419;SDS011;4247;48.550;8.822;2024-02-14T04:37:58;3.50;;;1.13;;
8419;SDS011;4247;48.550;8.822;2024-02-14T04:40:27;1.77;;;0.67;;
8419;SDS011;4247;48.550;8.822;2024-02-14T04:42:53;1.47;;;0.70;;
8419;SDS011;4247;48.550;8.822;2024-02-14T04:45:20;0.80;;;0.80;;
8419;SDS011;4247;48.550;8.822;2024-02-14T04:47:47;2.20;;;0.80;;
8419;SDS011;4247;48.550;8.822;2024-02-14T04:50:14;1.00;;;0.90;;
8419;SDS011;4247;48.550;8.822;2024-02-14T04:52:40;2.47;;;0.53;;
8419;SDS011;4247;48.550;8.822;2024-02-14T04:55:07;2.20;;;1.00;;
8419;SDS011;4247;48.550;8.822;2024-02-14T04:57:36;0.90;;;0.80;;
8419;SDS011;4247;48.550;8.822;2024-02-14T05:00:03;2.57;;;0.50;;
8419;SDS011;4247;48.550;8.822;2024-02-14T05:02:31;1.23;;;0.80;;
8419;SDS011;4247;48.550;8.822;2024-02-14T05:04:57;1.60;;;0.83;;
8419;SDS011;4247;48.550;8.822;2024-02-14T05:07:24;0.70;;;0.70;;
8419;SDS011;4247;48.550;8.822;2024-02-14T05:09:51;0.80;;;0.67;;
8419;SDS011;4247;48.550;8.822;2024-02-14T05:12:20;2.43;;;0.77;;
8419;SDS011;4247;48.550;8.822;2024-02-14T05:14:48;1.83;;;1.13;;
8419;SDS011;4247;48.550;8.822;2024-02-14T05:17:15;2.77;;;1.10;;
8419;SDS011;4247;48.550;8.822;2024-02-14T05:19:42;0.87;;;0.60;;
8419;SDS011;4247;48.550;8.822;2024-02-14T05:22:09;1.27;;;0.60;;
8419;SDS011;4247;48.550;8.822;2024-02-14T05:24:36;0.93;;;0.60;;
8419;SDS011;4247;48.550;8.822;2024-02-14T05:27:03;0.83;;;0.70;;
8419;SDS011;4247;48.550;8.822;2024-02-14T05:29:30;4.83;;;0.90;;
8419;SDS011;4247;48.550;8.822;2024-02-14T05:31:59;1.40;;;0.90;;
8419;SDS011;4247;48.550;8.822;2024-02-14T05:34:26;3.50;;;0.73;;
8419;SDS011;4247;48.550;8.822;2024-02-14T05:36:52;1.27;;;0.80;;
8419;SDS011;4247;48.550;8.822;2024-02-14T05:39:19;1.60;;;1.13;;
8419;SDS011;4247;48.550;8.822;2024-02-14T05:41:46;2.97;;;1.30;;
8419;SDS011;4247;48.550;8.822;2024-02-14T05:44:14;0.97;;;0.87;;
8419;SDS011;4247;48.550;8.822;2024-02-14T05:46:40;2.40;;;0.70;;
8419;SDS011;4247;48.550;8.822;2024-02-14T05:49:08;1.50;;;0.70;;
8419;SDS011;4247;48.550;8.822;2024-02-14T05:51:35;1.10;;;0.70;;
8419;SDS011;4247;48.550;8.822;2024-02-14T05:54:02;1.43;;;0.90;;
8419;SDS011;4247;48.550;8.822;2024-02-14T05:56:28;3.83;;;1.20;;
8419;SDS011;4247;48.550;8.822;2024-02-14T05:58:55;3.37;;;1.10;;
8419;SDS011;4247;48.550;8.822;2024-02-14T06:01:22;1.47;;;0.80;;
8419;SDS011;4247;48.550;8.822;2024-02-14T06:03:48;1.30;;;0.70;;
8419;SDS011;4247;48.550;8.822;2024-02-14T06:06:16;0.70;;;0.70;;
8419;SDS011;4247;48.550;8.822;2024-02-14T06:08:43;1.27;;;0.83;;
8419;SDS011;4247;48.550;8.822;2024-02-14T06:11:10;4.80;;;0.70;;
8419;SDS011;4247;48.550;8.822;2024-02-14T06:13:37;3.60;;;1.00;;
8419;SDS011;4247;48.550;8.822;2024-02-14T06:16:04;2.50;;;1.30;;
8419;SDS011;4247;48.550;8.822;2024-02-14T06:18:32;3.57;;;1.10;;
8419;SDS011;4247;48.550;8.822;2024-02-14T06:20:59;0.67;;;0.50;;
8419;SDS011;4247;48.550;8.822;2024-02-14T06:23:27;2.50;;;0.93;;
8419;SDS011;4247;48.550;8.822;2024-02-14T06:25:54;1.07;;;0.63;;
8419;SDS011;4247;48.550;8.822;2024-02-14T06:28:21;3.43;;;1.17;;
8419;SDS011;4247;48.550;8.822;2024-02-14T06:30:48;2.03;;;1.00;;
8419;SDS011;4247;48.550;8.822;2024-02-14T06:33:15;3.70;;;1.07;;
8419;SDS011;4247;48.550;8.822;2024-02-14T06:35:42;2.27;;;0.50;;
8419;SDS011;4247;48.550;8.822;2024-02-14T06:38:09;2.10;;;0.90;;
8419;SDS011;4247;48.550;8.822;2024-02-14T06:40:37;1.37;;;0.90;;
8419;SDS011;4247;48.550;8.822;2024-02-14T06:43:04;0.90;;;0.70;;
8419;SDS011;4247;48.550;8.822;2024-02-14T06:45:31;1.60;;;0.63;;
8419;SDS011;4247;48.550;8.822;2024-02-14T06:47:58;3.83;;;1.27;;
8419;SDS011;4247;48.550;8.822;2024-02-14T06:50:25;2.50;;;1.00;;
8419;SDS011;4247;48.550;8.822;2024-02-14T06:52:52;2.40;;;1.10;;
8419;SDS011;4247;48.550;8.822;2024-02-14T06:55:19;0.83;;;0.73;;
8419;SDS011;4247;48.550;8.822;2024-02-14T06:57:47;1.13;;;0.77;;
8419;SDS011;4247;48.550;8.822;2024-02-14T07:00:14;1.20;;;0.90;;
8419;SDS011;4247;48.550;8.822;2024-02-14T07:02:41;2.23;;;1.10;;
8419;SDS011;4247;48.550;8.822;2024-02-14T07:05:08;1.83;;;1.00;;
8419;SDS011;4247;48.550;8.822;2024-02-14T07:07:37;1.57;;;0.93;;
8419;SDS011;4247;48.550;8.822;2024-02-14T07:10:04;0.93;;;0.60;;
8419;SDS011;4247;48.550;8.822;2024-02-14T07:12:32;1.53;;;0.90;;
8419;SDS011;4247;48.550;8.822;2024-02-14T07:15:00;3.10;;;1.20;;
8419;SDS011;4247;48.550;8.822;2024-02-14T07:17:26;2.43;;;1.33;;
8419;SDS011;4247;48.550;8.822;2024-02-14T07:19:53;2.30;;;0.70;;
8419;SDS011;4247;48.550;8.822;2024-02-14T07:22:20;2.60;;;1.00;;
8419;SDS011;4247;48.550;8.822;2024-02-14T07:24:46;1.13;;;0.70;;
8419;SDS011;4247;48.550;8.822;2024-02-14T07:27:13;2.50;;;1.30;;
8419;SDS011;4247;48.550;8.822;2024-02-14T07:29:41;6.53;;;1.70;;
8419;SDS011;4247;48.550;8.822;2024-02-14T07:32:10;2.53;;;1.33;;
8419;SDS011;4247;48.550;8.822;2024-02-14T07:34:37;1.67;;;1.13;;
8419;SDS011;4247;48.550;8.822;2024-02-14T07:37:05;2.60;;;1.20;;
8419;SDS011;4247;48.550;8.822;2024-02-14T07:39:32;3.37;;;1.00;;
8419;SDS011;4247;48.550;8.822;2024-02-14T07:41:59;1.00;;;0.90;;
8419;SDS011;4247;48.550;8.822;2024-02-14T07:44:26;4.87;;;1.57;;
8419;SDS011;4247;48.550;8.822;2024-02-14T07:46:53;3.30;;;1.30;;
8419;SDS011;4247;48.550;8.822;2024-02-14T07:49:21;3.67;;;1.20;;
8419;SDS011;4247;48.550;8.822;2024-02-14T07:51:48;2.07;;;1.63;;
8419;SDS011;4247;48.550;8.822;2024-02-14T07:54:15;4.00;;;1.83;;
8419;SDS011;4247;48.550;8.822;2024-02-14T07:56:41;3.90;;;2.50;;
8419;SDS011;4247;48.550;8.822;2024-02-14T07:59:08;1.83;;;1.73;;
8419;SDS011;4247;48.550;8.822;2024-02-14T08:01:35;25.47;;;3.80;;
8419;SDS011;4247;48.550;8.822;2024-02-14T08:04:01;4.50;;;1.90;;
8419;SDS011;4247;48.550;8.822;2024-02-14T08:06:30;2.47;;;1.43;;
8419;SDS011;4247;48.550;8.822;2024-02-14T08:08:57;4.63;;;2.07;;
8419;SDS011;4247;48.550;8.822;2024-02-14T08:11:27;1.63;;;1.20;;
8419;SDS011;4247;48.550;8.822;2024-02-14T08:13:54;4.77;;;1.17;;
8419;SDS011;4247;48.550;8.822;2024-02-14T08:16:20;1.90;;;1.13;;
8419;SDS011;4247;48.550;8.822;2024-02-14T08:18:47;1.70;;;1.13;;
8419;SDS011;4247;48.550;8.822;2024-02-14T08:21:15;1.50;;;1.13;;
8419;SDS011;4247;48.550;8.822;2024-02-14T08:23:43;2.27;;;1.10;;
8419;SDS011;4247;48.550;8.822;2024-02-14T08:26:10;2.17;;;1.10;;
8419;SDS011;4247;48.550;8.822;2024-02-14T08:28:37;2.00;;;1.00;;
8419;SDS011;4247;48.550;8.822;2024-02-14T08:31:09;1.67;;;1.30;;
8419;SDS011;4247;48.550;8.822;2024-02-14T08:33:36;5.83;;;1.97;;
8419;SDS011;4247;48.550;8.822;2024-02-14T08:36:03;2.30;;;0.97;;
8419;SDS011;4247;48.550;8.822;2024-02-14T08:38:31;2.60;;;1.30;;
8419;SDS011;4247;48.550;8.822;2024-02-14T08:41:00;6.43;;;1.40;;
8419;SDS011;4247;48.550;8.822;2024-02-14T08:43:26;2.00;;;1.00;;
8419;SDS011;4247;48.550;8.822;2024-02-14T08:45:53;4.80;;;1.60;;
8419;SDS011;4247;48.550;8.822;2024-02-14T08:48:20;5.47;;;1.40;;
8419;SDS011;4247;48.550;8.822;2024-02-14T08:50:47;4.97;;;1.50;;
8419;SDS011;4247;48.550;8.822;2024-02-14T08:53:14;3.70;;;1.67;;
8419;SDS011;4247;48.550;8.822;2024-02-14T08:55:41;3.20;;;1.40;;
8419;SDS011;4247;48.550;8.822;2024-02-14T08:58:09;6.53;;;0.80;;
8419;SDS011;4247;48.550;8.822;2024-02-14T09:00:36;1.00;;;0.80;;
8419;SDS011;4247;48.550;8.822;2024-02-14T09:03:04;2.27;;;0.77;;
8419;SDS011;4247;48.550;8.822;2024-02-14T09:05:31;3.80;;;0.83;;
8419;SDS011;4247;48.550;8.822;2024-02-14T09:07:57;0.87;;;0.70;;
8419;SDS011;4247;48.550;8.822;2024-02-14T09:10:25;1.40;;;0.70;;
8419;SDS011;4247;48.550;8.822;2024-02-14T09:12:52;0.70;;;0.70;;
8419;SDS011;4247;48.550;8.822;2024-02-14T09:15:20;1.27;;;0.63;;
8419;SDS011;4247;48.550;8.822;2024-02-14T09:17:47;1.97;;;0.93;;
8419;SDS011;4247;48.550;8.822;2024-02-14T09:20:14;4.63;;;1.23;;
8419;SDS011;4247;48.550;8.822;2024-02-14T09:22:41;1.33;;;0.80;;
8419;SDS011;4247;48.550;8.822;2024-02-14T09:25:07;0.50;;;0.50;;
8419;SDS011;4247;48.550;8.822;2024-02-14T09:27:34;2.27;;;0.97;;
8419;SDS011;4247;48.550;8.822;2024-02-14T09:30:01;1.93;;;0.73;;
8419;SDS011;4247;48.550;8.822;2024-02-14T09:32:31;6.07;;;0.60;;
8419;SDS011;4247;48.550;8.822;2024-02-14T09:34:58;2.77;;;0.57;;
8419;SDS011;4247;48.550;8.822;2024-02-14T09:37:25;1.50;;;0.50;;
8419;SDS011;4247;48.550;8.822;2024-02-14T09:39:51;2.37;;;0.60;;
8419;SDS011;4247;48.550;8.822;2024-02-14T09:42:19;0.60;;;0.50;;
8419;SDS011;4247;48.550;8.822;2024-02-14T09:44:54;1.20;;;0.70;;
8419;SDS011;4247;48.550;8.822;2024-02-14T09:47:24;1.83;;;0.60;;
8419;SDS011;4247;48.550;8.822;2024-02-14T09:49:55;1.90;;;0.60;;
8419;SDS011;4247;48.550;8.822;2024-02-14T09:52:23;1.53;;;1.30;;
8419;SDS011;4247;48.550;8.822;2024-02-14T09:54:51;2.47;;;0.70;;
8419;SDS011;4247;48.550;8.822;2024-02-14T09:57:18;0.87;;;0.53;;
8419;SDS011;4247;48.550;8.822;2024-02-14T09:59:46;0.40;;;0.33;;
8419;SDS011;4247;48.550;8.822;2024-02-14T10:02:14;3.97;;;0.40;;
8419;SDS011;4247;48.550;8.822;2024-02-14T10:04:42;1.70;;;0.50;;
8419;SDS011;4247;48.550;8.822;2024-02-14T10:07:10;0.73;;;0.43;;
8419;SDS011;4247;48.550;8.822;2024-02-14T10:09:40;1.60;;;0.40;;
8419;SDS011;4247;48.550;8.822;2024-02-14T10:12:07;2.23;;;0.50;;
8419;SDS011;4247;48.550;8.822;2024-02-14T10:14:35;1.80;;;0.53;;
8419;SDS011;4247;48.550;8.822;2024-02-14T10:17:01;0.30;;;0.30;;
8419;SDS011;4247;48.550;8.822;2024-02-14T10:19:29;0.90;;;0.40;;
8419;SDS011;4247;48.550;8.822;2024-02-14T10:21:56;1.20;;;0.30;;
8419;SDS011;4247;48.550;8.822;2024-02-14T10:24:25;1.37;;;0.40;;
8419;SDS011;4247;48.550;8.822;2024-02-14T10:26:52;0.53;;;0.40;;
8419;SDS011;4247;48.550;8.822;2024-02-14T10:29:22;1.67;;;0.60;;
8419;SDS011;4247;48.550;8.822;2024-02-14T10:31:49;0.60;;;0.53;;
8419;SDS011;4247;48.550;8.822;2024-02-14T10:34:16;0.20;;;0.20;;
8419;SDS011;4247;48.550;8.822;2024-02-14T10:36:45;0.43;;;0.40;;
8419;SDS011;4247;48.550;8.822;2024-02-14T10:39:12;0.83;;;0.50;;
8419;SDS011;4247;48.550;8.822;2024-02-14T10:41:42;0.40;;;0.40;;
8419;SDS011;4247;48.550;8.822;2024-02-14T10:44:09;0.43;;;0.40;;
8419;SDS011;4247;48.550;8.822;2024-02-14T10:46:37;5.80;;;1.90;;
8419;SDS011;4247;48.550;8.822;2024-02-14T10:49:07;2.40;;;1.20;;
8419;SDS011;4247;48.550;8.822;2024-02-14T10:51:37;3.73;;;1.33;;
8419;SDS011;4247;48.550;8.822;2024-02-14T10:54:11;3.23;;;1.50;;
8419;SDS011;4247;48.550;8.822;2024-02-14T10:56:38;3.47;;;1.10;;
8419;SDS011;4247;48.550;8.822;2024-02-14T10:59:08;4.30;;;2.17;;
8419;SDS011;4247;48.550;8.822;2024-02-14T11:01:38;1.17;;;0.70;;
8419;SDS011;4247;48.550;8.822;2024-02-14T11:04:06;0.97;;;0.60;;
8419;SDS011;4247;48.550;8.822;2024-02-14T11:06:43;1.47;;;0.80;;
8419;SDS011;4247;48.550;8.822;2024-02-14T11:09:11;1.27;;;0.97;;
8419;SDS011;4247;48.550;8.822;2024-02-14T11:11:40;0.40;;;0.40;;
8419;SDS011;4247;48.550;8.822;2024-02-14T11:14:09;1.97;;;0.23;;
8419;SDS011;4247;48.550;8.822;2024-02-14T11:16:37;2.20;;;0.60;;
8419;SDS011;4247;48.550;8.822;2024-02-14T11:19:07;6.57;;;3.67;;
8419;SDS011;4247;48.550;8.822;2024-02-14T11:21:35;1.33;;;0.83;;
8419;SDS011;4247;48.550;8.822;2024-02-14T11:24:06;1.33;;;0.40;;
8419;SDS011;4247;48.550;8.822;2024-02-14T11:26:39;0.50;;;0.20;;
8419;SDS011;4247;48.550;8.822;2024-02-14T11:29:14;1.37;;;0.30;;
8419;SDS011;4247;48.550;8.822;2024-02-14T11:31:42;0.13;;;0.13;;
8419;SDS011;4247;48.550;8.822;2024-02-14T11:34:10;0.20;;;0.13;;
8419;SDS011;4247;48.550;8.822;2024-02-14T11:36:38;8.20;;;0.97;;
8419;SDS011;4247;48.550;8.822;2024-02-14T11:39:07;2.00;;;0.90;;
8419;SDS011;4247;48.550;8.822;2024-02-14T11:41:34;1.10;;;0.70;;
8419;SDS011;4247;48.550;8.822;2024-02-14T11:44:02;0.87;;;0.40;;
8419;SDS011;4247;48.550;8.822;2024-02-14T11:46:31;0.37;;;0.20;;
8419;SDS011;4247;48.550;8.822;2024-02-14T11:48:59;0.20;;;0.20;;
8419;SDS011;4247;48.550;8.822;2024-02-14T11:51:27;0.77;;;0.57;;
8419;SDS011;4247;48.550;8.822;2024-02-14T11:53:54;0.30;;;0.30;;
8419;SDS011;4247;48.550;8.822;2024-02-14T11:56:21;0.10;;;0.10;;
8419;SDS011;4247;48.550;8.822;2024-02-14T11:58:48;0.20;;;0.20;;
8419;SDS011;4247;48.550;8.822;2024-02-14T12:01:16;0.30;;;0.20;;
8419;SDS011;4247;48.550;8.822;2024-02-14T12:03:44;0.30;;;0.30;;
8419;SDS011;4247;48.550;8.822;2024-02-14T12:06:11;0.30;;;0.20;;
8419;SDS011;4247;48.550;8.822;2024-02-14T12:08:38;0.20;;;0.20;;
8419;SDS011;4247;48.550;8.822;2024-02-14T12:11:05;0.10;;;0.10;;
8419;SDS011;4247;48.550;8.822;2024-02-14T12:13:32;0.30;;;0.30;;
8419;SDS011;4247;48.550;8.822;2024-02-14T12:16:03;1.03;;;0.20;;
8419;SDS011;4247;48.550;8.822;2024-02-14T12:18:32;0.13;;;0.10;;
8419;SDS011;4247;48.550;8.822;2024-02-14T12:21:07;0.73;;;0.30;;
8419;SDS011;4247;48.550;8.822;2024-02-14T12:23:33;0.63;;;0.20;;
8419;SDS011;4247;48.550;8.822;2024-02-14T12:26:01;0.20;;;0.20;;
8419;SDS011;4247;48.550;8.822;2024-02-14T12:28:29;0.33;;;0.20;;
8419;SDS011;4247;48.550;8.822;2024-02-14T12:30:56;0.20;;;0.10;;
8419;SDS011;4247;48.550;8.822;2024-02-14T12:33:23;0.27;;;0.20;;
8419;SDS011;4247;48.550;8.822;2024-02-14T12:35:51;0.40;;;0.20;;
8419;SDS011;4247;48.550;8.822;2024-02-14T12:38:21;0.20;;;0.10;;
8419;SDS011;4247;48.550;8.822;2024-02-14T12:40:48;0.10;;;0.10;;
8419;SDS011;4247;48.550;8.822;2024-02-14T12:43:16;0.23;;;0.20;;
8419;SDS011;4247;48.550;8.822;2024-02-14T12:45:43;0.10;;;0.10;;
8419;SDS011;4247;48.550;8.822;2024-02-14T12:48:10;0.50;;;0.30;;
8419;SDS011;4247;48.550;8.822;2024-02-14T12:50:38;0.77;;;0.20;;
8419;SDS011;4247;48.550;8.822;2024-02-14T12:53:12;0.30;;;0.17;;
8419;SDS011;4247;48.550;8.822;2024-02-14T12:55:40;0.20;;;0.20;;
8419;SDS011;4247;48.550;8.822;2024-02-14T12:58:07;0.33;;;0.20;;
8419;SDS011;4247;48.550;8.822;2024-02-14T13:00:34;0.10;;;0.10;;
8419;SDS011;4247;48.550;8.822;2024-02-14T13:03:01;0.10;;;0.10;;
8419;SDS011;4247;48.550;8.822;2024-02-14T13:05:29;0.40;;;0.20;;
8419;SDS011;4247;48.550;8.822;2024-02-14T13:07:56;0.57;;;0.20;;
8419;SDS011;4247;48.550;8.822;2024-02-14T13:10:23;4.07;;;0.13;;
8419;SDS011;4247;48.550;8.822;2024-02-14T13:12:51;0.97;;;0.10;;
8419;SDS011;4247;48.550;8.822;2024-02-14T13:15:17;0.20;;;0.10;;
8419;SDS011;4247;48.550;8.822;2024-02-14T13:17:44;0.33;;;0.23;;
8419;SDS011;4247;48.550;8.822;2024-02-14T13:20:11;0.30;;;0.30;;
8419;SDS011;4247;48.550;8.822;2024-02-14T13:22:40;0.20;;;0.20;;
8419;SDS011;4247;48.550;8.822;2024-02-14T13:25:07;0.20;;;0.20;;
8419;SDS011;4247;48.550;8.822;2024-02-14T13:27:34;1.20;;;0.90;;
8419;SDS011;4247;48.550;8.822;2024-02-14T13:30:02;2.43;;;0.70;;
8419;SDS011;4247;48.550;8.822;2024-02-14T13:32:29;0.50;;;0.50;;
8419;SDS011;4247;48.550;8.822;2024-02-14T13:34:55;0.50;;;0.50;;
8419;SDS011;4247;48.550;8.822;2024-02-14T13:37:22;0.70;;;0.37;;
8419;SDS011;4247;48.550;8.822;2024-02-14T13:39:49;0.47;;;0.47;;
8419;SDS011;4247;48.550;8.822;2024-02-14T13:42:16;1.30;;;0.20;;
8419;SDS011;4247;48.550;8.822;2024-02-14T13:44:43;0.23;;;0.23;;
8419;SDS011;4247;48.550;8.822;2024-02-14T13:47:11;0.30;;;0.30;;
8419;SDS011;4247;48.550;8.822;2024-02-14T13:49:38;0.10;;;0.10;;
8419;SDS011;4247;48.550;8.822;2024-02-14T13:52:04;0.20;;;0.20;;
8419;SDS011;4247;48.550;8.822;2024-02-14T13:54:31;0.30;;;0.30;;
8419;SDS011;4247;48.550;8.822;2024-02-14T13:56:58;0.10;;;0.10;;
8419;SDS011;4247;48.550;8.822;2024-02-14T13:59:24;0.43;;;0.30;;
8419;SDS011;4247;48.550;8.822;2024-02-14T14:01:51;0.10;;;0.10;;
8419;SDS011;4247;48.550;8.822;2024-02-14T14:04:19;0.20;;;0.20;;
8419;SDS011;4247;48.550;8.822;2024-02-14T14:06:46;0.63;;;0.30;;
8419;SDS011;4247;48.550;8.822;2024-02-14T14:09:13;0.83;;;0.23;;
8419;SDS011;4247;48.550;8.822;2024-02-14T14:11:40;0.10;;;0.10;;
8419;SDS011;4247;48.550;8.822;2024-02-14T14:14:06;0.43;;;0.20;;
8419;SDS011;4247;48.550;8.822;2024-02-14T14:16:36;0.83;;;0.10;;
8419;SDS011;4247;48.550;8.822;2024-02-14T14:19:03;0.10;;;0.10;;
8419;SDS011;4247;48.550;8.822;2024-02-14T14:21:31;0.77;;;0.20;;
8419;SDS011;4247;48.550;8.822;2024-02-14T14:23:57;0.40;;;0.07;;
8419;SDS011;4247;48.550;8.822;2024-02-14T14:26:24;0.20;;;0.20;;
8419;SDS011;4247;48.550;8.822;2024-02-14T14:28:51;0.10;;;0.10;;
8419;SDS011;4247;48.550;8.822;2024-02-14T14:31:19;0.20;;;0.20;;
8419;SDS011;4247;48.550;8.822;2024-02-14T14:33:46;0.20;;;0.10;;
8419;SDS011;4247;48.550;8.822;2024-02-14T14:36:13;0.57;;;0.17;;
8419;SDS011;4247;48.550;8.822;2024-02-14T14:38:41;0.60;;;0.17;;
8419;SDS011;4247;48.550;8.822;2024-02-14T14:41:08;0.20;;;0.20;;
8419;SDS011;4247;48.550;8.822;2024-02-14T14:43:35;1.93;;;0.60;;
8419;SDS011;4247;48.550;8.822;2024-02-14T14:46:01;3.97;;;0.33;;
8419;SDS011;4247;48.550;8.822;2024-02-14T14:48:28;2.87;;;0.30;;
8419;SDS011;4247;48.550;8.822;2024-02-14T14:50:55;0.30;;;0.23;;
8419;SDS011;4247;48.550;8.822;2024-02-14T14:53:21;0.20;;;0.20;;
8419;SDS011;4247;48.550;8.822;2024-02-14T14:55:51;0.20;;;0.20;;
8419;SDS011;4247;48.550;8.822;2024-02-14T14:58:20;0.40;;;0.30;;
8419;SDS011;4247;48.550;8.822;2024-02-14T15:00:48;0.33;;;0.30;;
8419;SDS011;4247;48.550;8.822;2024-02-14T15:03:15;1.50;;;0.10;;
8419;SDS011;4247;48.550;8.822;2024-02-14T15:05:41;0.30;;;0.30;;
8419;SDS011;4247;48.550;8.822;2024-02-14T15:08:08;0.30;;;0.20;;
8419;SDS011;4247;48.550;8.822;2024-02-14T15:10:35;0.20;;;0.10;;
8419;SDS011;4247;48.550;8.822;2024-02-14T15:13:04;0.30;;;0.30;;
8419;SDS011;4247;48.550;8.822;2024-02-14T15:15:31;0.30;;;0.20;;